首页
METAR-TAF:

METAR-TAF

机场 :

瑟克特夫卡爾, 俄罗斯

纬度: 61-43N, 经度: 050-50E, 海拔: 119米

当前天气观测

该预报发布于28分钟前的01:00 UTC
风速2节,风向多变
温度 13°C
湿度 72%
气压 1006 hPa
能见度10公里或以上
1500米以下无云,无积雨云

METAR: UUYY 190100Z VRB01MPS CAVOK 13/08 Q1006 R36/61D NOSIG RMK QFE745/0994

时间: 04:28 (01:28 UTC)

预报

该预报发布于2小时和28分钟前的23:00 UTC
预报有效从19日的 00点(UTC)到 19日的 24点(UTC)
风速6节,风向西北,有时为19节阵风
能见度10公里或以上
多云层高于2000英尺
散云层高于3000英尺, 积雨云.
短暂存在
从 19日的 06点(UTC)到 19日的 18点(UTC)
能見度: 5000
多云层高于1500英尺
多云层高于2000英尺, 积雨云.
小阵雨
从 19日的 1800点(UTC)
风速6节,风向西转西南,有时为16节阵风
能見度: 4000
多云层高于1100英尺
多云层高于2000英尺, 积雨云.
小阵雨, 轻雾

TAF: UUYY 182300Z 1900/1924 32003G10MPS 9999 BKN020 SCT030CB TEMPO 1906/1918 5000 -SHRA BKN015 BKN020CB FM191800 25003G08MPS 4000 -SHRA BR BKN011 BKN020CB

超过4000个机场的气象观测和天气预报(METAR&TAF报告)。

可查询的气象台以黄色和红色小点在地图上表示。

将鼠标移到小点上方,可查看气象台名称。

然后点击查看天气观测和预报。

如需切换地图:点击带黑十字的绿色按钮放大地图;点击带横线的绿色按钮缩小地图;或者点击绿色箭头查看邻近地区的地图。


METAR-TAF: